Time;durP1;ratioP1;P1;durP2;ratioP2;P2;SDS_P1;SDS_P2;PMS_P1;PMS_P2;Temp;Humidity;BMP_temperature;BMP_pressure;BME280_temperature;BME280_humidity;BME280_pressure;Samples;Min_cycle;Max_cycle;Signal;HPM_P1;HPM_P2
2023/05/22 00:01:25;;;;;;;24.45;19.13;;;;;;;14.83;100.00;101474.88;5057811;28;20037;-79
2023/05/22 00:03:51;;;;;;;23.05;18.88;;;;;;;14.84;100.00;101476.53;5075442;28;20031;-79
2023/05/22 00:06:17;;;;;;;26.98;19.63;;;;;;;14.74;100.00;101465.13;5075885;28;20451;-77
2023/05/22 00:08:43;;;;;;;25.15;19.17;;;;;;;14.74;100.00;101478.97;5075476;28;20103;-78
2023/05/22 00:11:08;;;;;;;26.98;19.83;;;;;;;14.52;100.00;101445.00;5075464;28;20021;-79
2023/05/22 00:13:34;;;;;;;24.42;19.73;;;;;;;14.71;100.00;101476.59;5075697;28;20089;-78
2023/05/22 00:15:59;;;;;;;27.77;20.40;;;;;;;14.72;100.00;101480.00;5075706;28;20052;-79
2023/05/22 00:18:25;;;;;;;24.27;19.88;;;;;;;14.72;100.00;101480.84;5075388;28;20032;-79
2023/05/22 00:20:52;;;;;;;27.90;19.90;;;;;;;14.71;100.00;101473.16;5075506;28;20134;-78
2023/05/22 00:23:17;;;;;;;28.67;21.25;;;;;;;14.58;100.00;101455.81;5075113;28;20032;-78
2023/05/22 00:25:43;;;;;;;28.80;19.92;;;;;;;14.51;100.00;101456.34;5075270;28;20041;-80
2023/05/22 00:28:08;;;;;;;24.92;19.73;;;;;;;14.69;100.00;101483.66;5075380;28;20024;-82
2023/05/22 00:30:33;;;;;;;27.60;20.05;;;;;;;14.46;100.00;101451.47;5075314;28;20486;-82
2023/05/22 00:32:59;;;;;;;27.27;20.50;;;;;;;14.57;100.00;101471.53;5075277;28;20384;-83
2023/05/22 00:35:24;;;;;;;28.63;21.02;;;;;;;14.54;100.00;101477.75;5075013;28;20031;-84
2023/05/22 00:37:50;;;;;;;28.48;20.42;;;;;;;14.43;100.00;101454.25;5075174;28;20104;-78
2023/05/22 00:40:15;;;;;;;25.88;20.88;;;;;;;14.46;100.00;101461.88;5075317;28;20028;-83
2023/05/22 00:42:44;;;;;;;27.98;21.45;;;;;;;14.51;100.00;101471.94;5075158;28;20468;-84
2023/05/22 00:45:10;;;;;;;24.08;19.92;;;;;;;14.53;100.00;101478.69;5074937;28;20105;-83
2023/05/22 00:47:36;;;;;;;31.48;21.25;;;;;;;14.49;100.00;101464.25;5075037;28;20074;-84
2023/05/22 00:50:04;;;;;;;25.95;20.05;;;;;;;14.34;100.00;101441.88;5074740;28;20052;-83
2023/05/22 00:52:30;;;;;;;25.35;19.50;;;;;;;14.52;100.00;101460.59;5074326;28;20037;-85
2023/05/22 00:54:55;;;;;;;29.10;20.38;;;;;;;14.54;100.00;101464.75;5074773;28;20024;-84
2023/05/22 00:57:21;;;;;;;26.02;20.48;;;;;;;14.34;100.00;101437.50;5074953;28;20081;-85
2023/05/22 00:59:48;;;;;;;28.40;20.60;;;;;;;14.45;100.00;101460.19;5074804;28;20025;-83
2023/05/22 01:02:15;;;;;;;29.10;21.05;;;;;;;14.51;100.00;101472.78;5074689;28;20027;-84
2023/05/22 01:04:47;;;;;;;25.80;20.02;;;;;;;14.43;100.00;101454.25;5074336;28;20064;-83
2023/05/22 01:07:13;;;;;;;29.75;20.55;;;;;;;14.46;100.00;101454.09;5074795;28;20024;-84
2023/05/22 01:09:38;;;;;;;27.17;20.85;;;;;;;14.54;100.00;101464.75;5074436;28;20483;-84
2023/05/22 01:12:34;;;;;;;26.17;20.48;;;;;;;14.53;100.00;101464.84;5074573;28;20028;-82
2023/05/22 01:15:16;;;;;;;28.20;21.13;;;;;;;14.44;100.00;101453.31;5074615;28;20391;-80
2023/05/22 01:17:54;;;;;;;27.45;20.95;;;;;;;14.52;100.00;101465.81;5074327;28;20029;-82
2023/05/22 01:20:27;;;;;;;28.98;22.13;;;;;;;14.48;100.00;101462.59;5074397;28;20029;-84
2023/05/22 01:23:02;;;;;;;26.55;21.77;;;;;;;14.50;100.00;101457.28;5074195;28;20017;-84
2023/05/22 01:25:33;;;;;;;31.42;22.02;;;;;;;14.48;100.00;101461.78;5073968;28;20047;-82
2023/05/22 01:28:01;;;;;;;;;;;;;;;14.50;100.00;101459.88;5074827;28;20032;-84
2023/05/22 01:30:51;;;;;;;29.00;22.75;;;;;;;14.43;100.00;101458.59;5074274;28;19916;-84
2023/05/22 01:33:17;;;;;;;29.48;23.02;;;;;;;14.37;100.00;101456.44;5074011;28;20368;-84
2023/05/22 01:35:54;;;;;;;29.30;22.80;;;;;;;14.15;100.00;101434.50;5074141;28;20107;-84
2023/05/22 01:38:20;;;;;;;29.17;23.38;;;;;;;14.30;100.00;101466.44;5074005;28;20032;-80
2023/05/22 01:40:47;;;;;;;31.85;23.77;;;;;;;14.26;100.00;101454.59;5074064;28;20024;-83
2023/05/22 01:43:13;;;;;;;32.50;24.60;;;;;;;14.20;100.00;101457.59;5074142;28;20024;-84
2023/05/22 01:45:39;;;;;;;29.02;23.27;;;;;;;14.20;100.00;101452.41;5073970;28;20039;-85
2023/05/22 01:48:04;;;;;;;30.80;23.83;;;;;;;14.16;100.00;101456.13;5073870;28;20368;-83
2023/05/22 01:50:30;;;;;;;31.40;23.20;;;;;;;14.13;100.00;101451.16;5055948;28;20194;-83
2023/05/22 01:53:10;;;;;;;30.00;24.17;;;;;;;14.11;100.00;101458.22;5073456;28;20031;-84
2023/05/22 01:55:54;;;;;;;31.45;24.52;;;;;;;14.10;100.00;101456.56;5073791;28;20029;-84
2023/05/22 01:58:33;;;;;;;33.97;23.88;;;;;;;14.09;100.00;101453.13;5073650;28;20013;-84
2023/05/22 02:01:00;;;;;;;30.33;24.52;;;;;;;13.91;100.00;101431.81;5073592;28;20060;-84
2023/05/22 02:03:30;;;;;;;29.83;24.20;;;;;;;13.90;100.00;101435.34;5072937;28;20074;-84
2023/05/22 02:05:58;;;;;;;31.58;24.92;;;;;;;13.91;100.00;101447.41;5072831;28;20089;-85
2023/05/22 02:08:25;;;;;;;35.22;25.08;;;;;;;13.90;100.00;101448.34;5073413;28;20446;-84
2023/05/22 02:10:53;;;;;;;35.63;26.13;;;;;;;13.88;100.00;101444.19;5073374;28;20024;-83
2023/05/22 02:13:20;;;;;;;34.92;26.17;;;;;;;13.90;100.00;101448.34;5073227;28;20025;-85
2023/05/22 02:15:46;;;;;;;37.25;25.83;;;;;;;13.82;100.00;101437.63;5073227;28;20077;-85
2023/05/22 02:18:12;;;;;;;32.70;25.60;;;;;;;13.84;100.00;101443.56;5073114;28;20074;-85
2023/05/22 02:20:37;;;;;;;33.03;26.80;;;;;;;13.78;100.00;101441.38;5072844;28;20055;-84
2023/05/22 02:23:03;;;;;;;34.13;26.60;;;;;;;13.78;100.00;101436.19;5073021;28;20489;-84
2023/05/22 02:25:28;;;;;;;37.33;28.35;;;;;;;13.80;100.00;101444.69;5072577;28;20049;-83
2023/05/22 02:27:53;;;;;;;33.72;26.80;;;;;;;13.80;100.00;101439.50;5072760;28;20212;-83
2023/05/22 02:30:19;;;;;;;35.53;28.77;;;;;;;13.81;100.00;101448.97;5072807;28;20059;-84
2023/05/22 02:32:44;;;;;;;36.40;28.48;;;;;;;13.85;100.00;101442.63;5072859;28;20028;-84
2023/05/22 02:35:10;;;;;;;36.30;28.30;;;;;;;13.86;100.00;101433.88;5072806;28;20056;-85
2023/05/22 02:37:36;;;;;;;36.45;29.00;;;;;;;13.86;100.00;101438.25;5072751;28;20035;-83
2023/05/22 02:40:04;;;;;;;33.88;27.85;;;;;;;13.64;100.00;101386.94;5073002;28;20035;-85
2023/05/22 02:42:30;;;;;;;37.33;28.77;;;;;;;13.79;100.00;101419.69;5072937;28;20028;-84
2023/05/22 02:44:55;;;;;;;38.15;28.70;;;;;;;13.91;100.00;101439.63;5054838;28;20035;-85
2023/05/22 02:47:20;;;;;;;36.33;27.90;;;;;;;13.56;100.00;101379.66;5072804;28;20031;-84
2023/05/22 02:49:46;;;;;;;35.90;28.02;;;;;;;13.81;100.00;101425.59;5072475;28;20048;-84
2023/05/22 02:52:11;;;;;;;32.35;27.58;;;;;;;13.77;100.00;101418.97;5072905;28;20025;-84
2023/05/22 02:54:37;;;;;;;36.08;28.08;;;;;;;13.86;100.00;101433.06;5072646;28;20033;-85
2023/05/22 02:57:02;;;;;;;35.75;28.63;;;;;;;13.84;100.00;101424.53;5072642;28;20028;-85
2023/05/22 02:59:28;;;;;;;33.55;29.50;;;;;;;13.63;100.00;101400.84;5072532;28;20020;-83
2023/05/22 03:01:54;;;;;;;34.50;28.65;;;;;;;13.68;100.00;101422.16;5072468;28;20460;-84
2023/05/22 03:04:19;;;;;;;35.20;30.02;;;;;;;13.39;100.00;101379.97;5072361;28;20031;-84
2023/05/22 03:06:45;;;;;;;35.65;30.02;;;;;;;13.48;100.00;101406.16;5072815;28;20021;-84
2023/05/22 03:09:10;;;;;;;36.40;30.02;;;;;;;13.32;100.00;101382.13;5072625;28;20024;-85
2023/05/22 03:11:36;;;;;;;39.03;31.20;;;;;;;13.47;100.00;101414.88;5072472;28;20371;-84
2023/05/22 03:14:01;;;;;;;37.53;31.02;;;;;;;13.42;100.00;101419.50;5072633;28;20468;-85
2023/05/22 03:16:26;;;;;;;41.47;32.30;;;;;;;13.38;100.00;101423.25;5072176;28;20436;-85
2023/05/22 03:19:06;;;;;;;38.97;31.88;;;;;;;13.26;100.00;101405.88;5054461;28;20028;-85
2023/05/22 03:21:32;;;;;;;39.72;32.63;;;;;;;13.32;100.00;101418.44;5072699;28;20052;-85
2023/05/22 03:23:57;;;;;;;34.58;30.88;;;;;;;13.25;100.00;101422.34;5071984;28;20056;-82
2023/05/22 03:26:22;;;;;;;37.03;31.60;;;;;;;13.20;100.00;101420.06;5069924;28;20052;-82
2023/05/22 03:28:49;;;;;;;40.25;32.13;;;;;;;13.11;100.00;101410.25;5072414;28;20044;-84
2023/05/22 03:31:14;;;;;;;42.03;32.97;;;;;;;12.90;100.00;101383.94;5072378;28;20430;-85
2023/05/22 03:33:40;;;;;;;41.72;32.92;;;;;;;13.09;100.00;101413.91;5072402;28;20028;-84
2023/05/22 03:36:05;;;;;;;42.20;33.72;;;;;;;13.01;100.00;101403.16;5072252;28;20120;-83
2023/05/22 03:38:31;;;;;;;39.40;33.65;;;;;;;13.03;100.00;101419.47;5072241;28;20020;-85
2023/05/22 03:40:56;;;;;;;38.08;31.48;;;;;;;12.98;100.00;101412.00;5072349;28;20025;-84
2023/05/22 03:43:21;;;;;;;39.08;33.65;;;;;;;12.98;100.00;101416.31;5072123;28;20067;-85
2023/05/22 03:45:47;;;;;;;42.42;33.42;;;;;;;12.95;100.00;101412.16;5072074;28;20048;-84
2023/05/22 03:48:12;;;;;;;42.33;35.22;;;;;;;12.62;100.00;101358.13;5053921;28;20033;-84
2023/05/22 03:50:37;;;;;;;43.60;34.25;;;;;;;12.89;100.00;101409.97;5072020;28;20021;-83
2023/05/22 03:53:04;;;;;;;40.97;34.22;;;;;;;12.66;100.00;101376.88;5072464;28;20082;-80
2023/05/22 03:55:30;;;;;;;43.90;34.13;;;;;;;12.86;100.00;101410.16;5072072;28;20024;-79
2023/05/22 03:57:55;;;;;;;41.58;33.58;;;;;;;12.83;100.00;101411.19;5072271;28;20037;-80
2023/05/22 04:00:20;;;;;;;42.72;33.05;;;;;;;12.68;100.00;101386.22;5072175;28;20472;-80
2023/05/22 04:02:46;;;;;;;41.72;32.90;;;;;;;12.80;100.00;101410.56;5072222;28;20103;-80
2023/05/22 04:05:11;;;;;;;39.83;34.53;;;;;;;12.57;100.00;101381.72;5071847;28;20075;-79
2023/05/22 04:07:37;;;;;;;40.58;33.13;;;;;;;12.73;100.00;101404.09;5053335;28;20048;-78
2023/05/22 04:10:14;;;;;;;40.30;33.42;;;;;;;12.39;100.00;101350.94;5100540;23;20048;-78
2023/05/22 04:12:40;;;;;;;44.67;35.10;;;;;;;12.56;100.00;101371.44;5074216;28;20024;-79
2023/05/22 04:15:06;;;;;;;39.22;33.20;;;;;;;12.50;100.00;101358.91;5092346;28;20039;-80
2023/05/22 04:17:32;;;;;;;42.35;33.42;;;;;;;12.43;100.00;101349.84;5085782;22;20071;-79
2023/05/22 04:19:59;;;;;;;45.30;33.50;;;;;;;12.78;100.00;101408.06;5071748;28;20476;-79
2023/05/22 04:22:26;;;;;;;42.45;33.88;;;;;;;12.91;100.00;101423.66;5072120;28;20032;-79
2023/05/22 04:24:51;;;;;;;44.17;33.47;;;;;;;12.95;100.00;101419.94;5071707;28;20356;-83
2023/05/22 04:27:17;;;;;;;40.60;32.67;;;;;;;12.77;100.00;101383.03;5054567;28;20073;-80
2023/05/22 04:29:43;;;;;;;41.60;32.70;;;;;;;12.84;100.00;101393.88;5075385;28;20024;-79
2023/05/22 04:32:10;;;;;;;42.67;33.03;;;;;;;13.05;100.00;101428.78;5057454;28;20085;-79
2023/05/22 04:34:40;;;;;;;42.70;33.88;;;;;;;12.67;100.00;101356.06;5075124;28;20480;-80
2023/05/22 04:37:05;;;;;;;42.97;33.65;;;;;;;12.83;100.00;101389.63;5075104;28;20500;-80
2023/05/22 04:39:31;;;;;;;48.42;35.38;;;;;;;13.12;100.00;101431.84;5075346;28;20103;-80
2023/05/22 04:41:57;;;;;;;43.85;34.20;;;;;;;12.98;100.00;101405.94;5074974;28;20402;-80
2023/05/22 04:44:22;;;;;;;42.28;33.28;;;;;;;12.48;100.00;101329.66;5074959;28;20021;-81
2023/05/22 04:46:48;;;;;;;45.30;34.17;;;;;;;12.69;100.00;101363.75;5075090;28;20028;-82
2023/05/22 04:49:14;;;;;;;44.63;32.47;;;;;;;13.18;100.00;101440.06;5074973;28;20423;-80
2023/05/22 04:51:39;;;;;;;45.88;33.75;;;;;;;13.25;100.00;101443.09;5074842;28;20024;-79
2023/05/22 04:54:05;;;;;;;45.08;32.28;;;;;;;13.28;100.00;101450.72;5075135;28;20355;-80
2023/05/22 04:56:30;;;;;;;43.65;32.15;;;;;;;13.34;100.00;101454.66;5056830;28;20050;-79
2023/05/22 04:58:56;;;;;;;43.60;31.52;;;;;;;13.39;100.00;101450.84;5057035;28;20024;-81
2023/05/22 05:01:21;;;;;;;43.15;32.63;;;;;;;13.45;100.00;101450.44;5074858;28;20048;-79
2023/05/22 05:03:47;;;;;;;44.63;31.60;;;;;;;13.28;100.00;101421.34;5074590;28;20032;-81
2023/05/22 05:06:12;;;;;;;45.28;32.03;;;;;;;13.49;100.00;101448.50;5074478;28;20116;-80
2023/05/22 05:08:38;;;;;;;43.05;31.10;;;;;;;13.42;100.00;101422.09;5074597;28;20074;-80
2023/05/22 05:11:03;;;;;;;44.40;32.33;;;;;;;13.66;100.00;101453.38;5074508;28;20027;-81
2023/05/22 05:13:29;;;;;;;47.58;30.95;;;;;;;13.68;100.00;101454.13;5074636;28;20029;-80
2023/05/22 05:15:58;;;;;;;49.55;32.22;;;;;;;13.48;100.00;101408.75;5074440;28;20016;-80
2023/05/22 05:18:23;;;;;;;40.80;29.65;;;;;;;13.58;100.00;101415.91;5072213;28;20196;-81
2023/05/22 05:20:48;;;;;;;51.22;31.85;;;;;;;13.80;100.00;101456.84;5074322;28;20404;-81
2023/05/22 05:23:14;;;;;;;43.35;30.40;;;;;;;13.88;100.00;101451.97;5074167;28;20056;-81
2023/05/22 05:25:39;;;;;;;42.70;30.30;;;;;;;13.78;100.00;101439.63;5074051;28;20525;-81
2023/05/22 05:28:09;;;;;;;47.05;31.25;;;;;;;13.68;100.00;101394.44;5074485;28;20021;-80
2023/05/22 05:30:37;;;;;;;44.67;29.42;;;;;;;13.98;100.00;101433.09;5055672;28;20089;-81
2023/05/22 05:33:02;;;;;;;44.83;31.15;;;;;;;14.23;100.00;101457.38;5074095;28;20016;-81
2023/05/22 05:35:29;;;;;;;45.72;29.70;;;;;;;14.37;100.00;101454.69;5073971;28;20032;-84
2023/05/22 05:37:57;;;;;;;44.65;29.80;;;;;;;14.46;100.00;101458.44;5074302;28;20032;-83
2023/05/22 05:40:23;;;;;;;37.42;27.85;;;;;;;14.60;100.00;101453.09;5056936;28;20414;-84
2023/05/22 05:42:48;;;;;;;40.83;28.38;;;;;;;14.56;100.00;101441.28;5073783;28;20032;-82
2023/05/22 05:45:14;;;;;;;35.95;27.10;;;;;;;14.73;100.00;101461.69;5073989;28;20033;-82
2023/05/22 05:47:40;;;;;;;39.35;26.70;;;;;;;14.76;100.00;101461.50;5073900;28;20028;-83
2023/05/22 05:50:08;;;;;;;39.33;26.77;;;;;;;14.76;100.00;101463.28;5074073;28;20024;-82
2023/05/22 05:52:33;;;;;;;39.05;27.40;;;;;;;14.73;100.00;101440.91;5074003;28;20118;-82
2023/05/22 05:55:02;;;;;;;38.05;26.98;;;;;;;14.84;100.00;101446.16;5074000;28;20107;-82
2023/05/22 05:57:28;;;;;;;40.50;27.85;;;;;;;14.78;100.00;101430.19;5073687;28;20081;-81
2023/05/22 05:59:54;;;;;;;43.22;29.17;;;;;;;14.92;100.00;101417.84;5073839;28;20442;-82
2023/05/22 06:02:19;;;;;;;43.05;28.55;;;;;;;15.46;100.00;101466.00;5073512;28;20084;-82
2023/05/22 06:04:47;;;;;;;40.75;27.25;;;;;;;15.72;100.00;101471.91;5073504;28;20037;-83
2023/05/22 06:07:14;;;;;;;41.10;27.42;;;;;;;15.88;100.00;101456.81;5073242;28;20435;-83
2023/05/22 06:09:39;;;;;;;37.72;26.30;;;;;;;16.07;99.57;101477.09;5073560;28;20360;-82
2023/05/22 06:12:05;;;;;;;41.80;26.45;;;;;;;16.21;98.33;101478.63;5073382;28;20029;-82
2023/05/22 06:14:31;;;;;;;32.40;24.33;;;;;;;16.19;98.41;101464.91;5073557;28;20399;-82
2023/05/22 06:16:57;;;;;;;34.50;25.80;;;;;;;16.11;98.56;101454.22;5052195;28;20112;-83
2023/05/22 06:19:22;;;;;;;36.67;24.05;;;;;;;16.01;98.30;101438.47;5065066;28;20029;-83
2023/05/22 06:21:47;;;;;;;32.53;24.27;;;;;;;16.25;98.83;101459.22;5071750;28;20056;-81
2023/05/22 06:24:16;;;;;;;32.30;23.95;;;;;;;16.52;98.48;101477.13;5073074;28;20365;-79
2023/05/22 06:26:41;;;;;;;32.50;23.60;;;;;;;16.54;98.30;101489.09;5072865;28;20033;-82
2023/05/22 06:29:06;;;;;;;35.00;25.02;;;;;;;16.43;96.28;101467.41;5073190;28;20047;-80
2023/05/22 06:31:34;;;;;;;36.53;25.17;;;;;;;16.43;96.25;101486.50;5073108;28;20028;-83
2023/05/22 06:33:59;;;;;;;34.90;25.90;;;;;;;16.29;98.36;101484.09;5072987;28;20024;-84
2023/05/22 06:36:25;;;;;;;37.75;27.50;;;;;;;16.32;98.03;101497.75;5072642;28;20017;-82
2023/05/22 06:38:53;;;;;;;39.28;29.00;;;;;;;16.10;98.81;101476.03;5072929;28;20024;-79
2023/05/22 06:41:20;;;;;;;38.25;27.48;;;;;;;16.12;99.26;101487.97;5055025;28;20442;-82
2023/05/22 06:43:45;;;;;;;38.50;29.13;;;;;;;15.96;99.87;101461.44;5054873;28;20021;-81
2023/05/22 06:46:11;;;;;;;40.05;26.50;;;;;;;16.26;98.67;101500.81;5072772;28;20483;-80
2023/05/22 06:48:36;;;;;;;42.90;28.75;;;;;;;16.28;99.77;101496.31;5054831;28;20044;-81
2023/05/22 06:51:01;;;;;;;42.03;27.20;;;;;;;16.24;98.65;101471.44;5053874;28;20044;-82
2023/05/22 06:53:27;;;;;;;41.97;26.30;;;;;;;16.53;98.17;101510.91;5072796;28;20024;-82
2023/05/22 06:55:52;;;;;;;37.53;26.13;;;;;;;16.58;97.22;101507.94;5072767;28;20020;-82
2023/05/22 06:58:17;;;;;;;34.33;25.17;;;;;;;16.61;96.99;101513.72;5072852;28;20081;-83
2023/05/22 07:00:43;;;;;;;37.20;26.75;;;;;;;16.59;96.73;101473.06;5072831;28;20053;-84
2023/05/22 07:03:08;;;;;;;38.88;26.58;;;;;;;16.81;95.71;101507.03;5072604;28;20032;-83
2023/05/22 07:05:33;;;;;;;36.65;27.42;;;;;;;16.78;96.26;101509.00;5072672;28;20097;-84
2023/05/22 07:07:59;;;;;;;34.50;26.35;;;;;;;16.79;95.69;101508.06;5072464;28;20025;-81
2023/05/22 07:10:26;;;;;;;35.83;25.38;;;;;;;16.72;95.77;101502.53;5072659;28;20021;-83
2023/05/22 07:12:52;;;;;;;37.80;27.73;;;;;;;16.89;94.72;101519.44;5054331;28;20065;-82
2023/05/22 07:15:17;;;;;;;39.17;25.85;;;;;;;16.70;95.60;101473.09;5072743;28;20464;-84
2023/05/22 07:17:42;;;;;;;36.20;27.42;;;;;;;17.03;94.25;101519.19;5072657;28;20143;-84
2023/05/22 07:20:09;;;;;;;38.35;26.30;;;;;;;16.86;93.75;101486.59;5072658;28;20050;-85
2023/05/22 07:22:35;;;;;;;35.70;27.17;;;;;;;17.09;93.24;101487.38;5072447;28;20360;-84
2023/05/22 07:25:00;;;;;;;36.75;27.65;;;;;;;17.41;92.21;101525.75;5072575;28;20074;-85
2023/05/22 07:27:26;;;;;;;34.13;25.85;;;;;;;17.55;91.00;101516.78;5072364;28;20382;-84
2023/05/22 07:29:51;;;;;;;35.38;26.52;;;;;;;17.59;92.23;101516.41;5072554;28;20182;-81
2023/05/22 07:32:16;;;;;;;37.17;27.25;;;;;;;17.68;90.60;101515.66;5072540;28;20047;-84
2023/05/22 07:34:43;;;;;;;38.10;27.55;;;;;;;17.83;89.82;101531.06;5072600;28;20056;-83
2023/05/22 07:37:10;;;;;;;34.30;26.92;;;;;;;17.76;89.31;101528.13;5072291;28;20052;-83
2023/05/22 07:39:45;;;;;;;37.30;28.15;;;;;;;17.56;89.55;101494.94;5072357;28;20020;-83
2023/05/22 07:42:13;;;;;;;38.88;28.20;;;;;;;17.89;89.47;101541.81;5072141;28;20529;-83
2023/05/22 07:44:45;;;;;;;36.15;28.70;;;;;;;17.60;90.26;101494.56;5072311;28;20036;-83
2023/05/22 07:47:17;;;;;;;37.55;28.42;;;;;;;17.27;90.56;101416.38;5071124;28;20357;-82
2023/05/22 07:49:42;;;;;;;39.50;30.38;;;;;;;18.03;89.97;101545.94;5072267;28;20103;-82
2023/05/22 07:52:07;;;;;;;40.17;30.55;;;;;;;18.07;90.11;101544.69;5072227;28;20104;-83
2023/05/22 07:54:33;;;;;;;41.13;30.45;;;;;;;18.14;91.03;101543.25;5072471;28;20111;-81
2023/05/22 07:57:02;;;;;;;37.53;28.65;;;;;;;18.19;89.35;101506.25;5072416;28;20056;-82
2023/05/22 07:59:27;;;;;;;38.90;28.70;;;;;;;18.69;88.09;101514.25;5071052;28;20016;-78
2023/05/22 08:01:53;;;;;;;38.42;28.45;;;;;;;19.17;86.75;101543.13;5072968;28;20480;-80
2023/05/22 08:04:18;;;;;;;34.63;28.58;;;;;;;19.07;84.13;101511.69;5057567;28;20040;-81
2023/05/22 08:06:43;;;;;;;36.45;27.42;;;;;;;19.49;83.14;101540.31;5075659;28;20031;-80
2023/05/22 08:09:09;;;;;;;34.67;26.50;;;;;;;19.64;81.75;101538.94;5075670;28;20357;-81
2023/05/22 08:11:36;;;;;;;34.97;26.75;;;;;;;19.67;80.82;101545.72;5058265;28;20123;-81
2023/05/22 08:14:02;;;;;;;33.83;26.65;;;;;;;19.55;81.60;101537.13;5075385;28;20364;-84
2023/05/22 08:16:27;;;;;;;36.03;28.08;;;;;;;19.48;81.91;101526.38;5057365;28;20039;-85
2023/05/22 08:18:52;;;;;;;39.00;29.20;;;;;;;19.54;82.06;101543.31;5075809;28;20021;-83
2023/05/22 08:21:18;;;;;;;37.95;28.67;;;;;;;19.28;82.24;101495.06;5075593;28;20068;-82
2023/05/22 08:23:43;;;;;;;38.40;29.02;;;;;;;19.75;81.72;101546.66;5075404;28;20025;-82
2023/05/22 08:26:08;;;;;;;33.08;28.98;;;;;;;19.74;80.87;101507.50;5075801;28;20020;-81
2023/05/22 08:28:35;;;;;;;35.35;27.70;;;;;;;20.28;79.29;101534.88;5076138;28;20017;-81
2023/05/22 08:31:01;;;;;;;35.63;28.25;;;;;;;20.47;78.16;101507.78;5076147;28;20031;-81
2023/05/22 08:33:27;;;;;;;34.97;27.70;;;;;;;20.59;78.32;101517.94;5075985;28;20024;-81
2023/05/22 08:35:52;;;;;;;32.20;27.92;;;;;;;20.45;77.16;101536.78;5076024;28;20578;-74
2023/05/22 08:38:17;;;;;;;37.33;29.67;;;;;;;20.33;79.55;101522.97;5075159;28;20043;-81
2023/05/22 08:40:46;;;;;;;35.58;27.40;;;;;;;20.34;79.26;101519.38;5075607;28;20024;-77
2023/05/22 08:43:11;;;;;;;37.28;29.25;;;;;;;20.75;77.59;101533.06;5074965;28;20020;-82
2023/05/22 08:45:41;;;;;;;37.72;29.40;;;;;;;21.01;77.73;101527.09;5075401;28;20039;-80
2023/05/22 08:48:10;;;;;;;35.97;27.88;;;;;;;20.97;77.63;101510.00;5075338;28;20099;-79
2023/05/22 08:50:42;;;;;;;36.22;28.48;;;;;;;20.89;77.58;101519.44;5074999;28;20112;-80
2023/05/22 08:53:11;;;;;;;37.25;29.52;;;;;;;20.81;76.45;101487.00;5073773;28;20029;-79
2023/05/22 08:55:37;;;;;;;35.80;27.60;;;;;;;21.20;76.30;101534.88;5057029;28;20076;-78
2023/05/22 08:58:03;;;;;;;38.65;28.80;;;;;;;21.18;76.85;101528.94;5074822;28;20476;-79
2023/05/22 09:00:29;;;;;;;40.88;30.30;;;;;;;20.75;75.89;101509.44;5075077;28;20360;-79
2023/05/22 09:02:56;;;;;;;38.97;29.67;;;;;;;21.01;76.49;101540.25;5074589;28;20028;-80
2023/05/22 09:05:25;;;;;;;36.08;29.05;;;;;;;21.36;74.66;101534.25;5074791;28;20032;-88
2023/05/22 09:07:52;;;;;;;36.28;28.77;;;;;;;21.37;74.75;101518.31;5074654;28;20108;-89
2023/05/22 09:10:18;;;;;;;38.50;28.10;;;;;;;21.53;75.20;101532.56;5074714;28;20464;-89
2023/05/22 09:13:06;;;;;;;40.30;28.52;;;;;;;21.79;74.66;101522.13;5074527;28;20034;-88
2023/05/22 09:15:33;;;;;;;39.45;28.05;;;;;;;21.74;73.72;101494.50;5074342;28;20029;-82
2023/05/22 09:17:59;;;;;;;35.70;28.98;;;;;;;22.06;72.10;101519.38;5074689;28;20048;-89
2023/05/22 09:20:25;;;;;;;38.63;28.83;;;;;;;21.82;72.11;101506.03;5074366;28;20056;-87
2023/05/22 09:22:50;;;;;;;41.15;28.83;;;;;;;21.43;74.58;101504.59;5074418;28;20063;-87
2023/05/22 09:25:20;;;;;;;39.40;29.17;;;;;;;21.30;75.38;101491.00;5074594;28;20132;-85
2023/05/22 09:27:49;;;;;;;36.20;27.70;;;;;;;21.53;77.96;101506.28;5056633;28;20071;-82
2023/05/22 09:30:17;;;;;;;37.67;28.58;;;;;;;21.64;74.86;101519.22;5074215;28;20047;-79
2023/05/22 09:32:45;;;;;;;34.67;27.10;;;;;;;21.68;74.55;101528.44;5074242;28;20032;-80
2023/05/22 09:35:11;;;;;;;34.58;26.20;;;;;;;21.63;75.14;101517.56;5073995;28;20024;-79
2023/05/22 09:37:37;;;;;;;36.38;27.42;;;;;;;21.55;75.22;101518.34;5074309;28;20027;-78
2023/05/22 09:40:07;;;;;;;38.38;29.20;;;;;;;21.45;74.67;101523.66;5074290;28;20036;-74
2023/05/22 09:42:33;;;;;;;35.65;26.90;;;;;;;21.60;75.40;101518.69;5074149;28;20017;-78
2023/05/22 09:45:06;;;;;;;30.42;25.27;;;;;;;21.63;73.84;101494.75;5056059;28;20476;-77
2023/05/22 09:47:35;;;;;;;38.20;24.73;;;;;;;21.80;76.35;101508.81;5074001;28;20029;-78
2023/05/22 09:50:06;;;;;;;37.53;24.70;;;;;;;21.52;73.37;101479.19;5073943;28;20096;-76
2023/05/22 09:52:35;;;;;;;32.72;24.85;;;;;;;21.60;74.49;101515.22;5074231;28;20056;-77
2023/05/22 09:55:05;;;;;;;34.70;25.50;;;;;;;21.48;74.29;101507.59;5073899;28;20476;-77
2023/05/22 09:57:35;;;;;;;33.47;24.80;;;;;;;21.69;75.42;101503.81;5072486;28;20443;-78
2023/05/22 10:00:04;;;;;;;33.17;26.63;;;;;;;21.69;73.44;101491.50;5073782;28;20028;-78
2023/05/22 10:02:30;;;;;;;33.33;25.13;;;;;;;21.52;74.38;101468.69;5072714;28;20380;-77
2023/05/22 10:04:57;;;;;;;33.88;26.02;;;;;;;21.69;75.28;101506.44;5073635;28;20089;-78
2023/05/22 10:07:33;;;;;;;35.20;27.35;;;;;;;21.68;74.80;101481.13;5073741;28;20354;-78
2023/05/22 10:10:10;;;;;;;31.67;25.38;;;;;;;21.82;73.55;101492.88;5073706;28;20487;-78
2023/05/22 10:12:47;;;;;;;31.48;24.48;;;;;;;21.84;72.98;101504.09;5073374;28;20064;-77
2023/05/22 10:15:14;;;;;;;35.97;27.58;;;;;;;21.79;72.49;101486.13;5073152;28;20267;-77
2023/05/22 10:17:40;;;;;;;37.28;28.92;;;;;;;21.83;73.45;101503.28;5073067;28;20101;-77
2023/05/22 10:20:07;;;;;;;41.25;28.23;;;;;;;21.80;74.81;101505.38;5073113;28;20533;-77
2023/05/22 10:22:37;;;;;;;38.05;29.13;;;;;;;21.74;77.55;101502.38;5073114;28;20029;-78
2023/05/22 10:25:03;;;;;;;38.67;29.85;;;;;;;21.79;74.12;101498.47;5072494;28;20482;-77
2023/05/22 10:27:29;;;;;;;38.58;29.92;;;;;;;21.84;74.08;101493.59;5073030;28;20537;-76
2023/05/22 10:30:02;;;;;;;38.30;28.35;;;;;;;21.90;74.53;101482.44;5073139;28;20037;-78
2023/05/22 10:32:43;;;;;;;39.05;28.95;;;;;;;22.23;72.21;101515.06;5055659;28;20554;-79
2023/05/22 10:35:19;;;;;;;36.50;28.38;;;;;;;22.24;71.62;101516.72;5072983;28;20033;-78
2023/05/22 10:37:50;;;;;;;35.28;28.10;;;;;;;21.86;71.44;101476.66;5073049;28;20102;-77
2023/05/22 10:40:31;;;;;;;37.33;29.27;;;;;;;21.89;71.77;101510.53;5072734;28;20028;-80
2023/05/22 10:43:00;;;;;;;35.53;27.80;;;;;;;21.79;73.26;101475.63;5073156;28;20032;-78
2023/05/22 10:45:27;;;;;;;35.42;27.70;;;;;;;22.04;71.73;101498.50;5072830;28;20025;-79
2023/05/22 10:48:07;;;;;;;36.55;28.92;;;;;;;22.10;72.21;101491.78;5072933;28;20025;-77
2023/05/22 10:50:34;;;;;;;37.35;27.10;;;;;;;22.19;70.18;101484.78;5072937;28;20031;-77
2023/05/22 10:53:20;;;;;;;34.75;27.83;;;;;;;22.32;71.08;101485.19;5072829;28;20048;-78
2023/05/22 10:55:47;;;;;;;34.22;26.38;;;;;;;22.18;70.30;101488.38;5072909;28;20416;-77
2023/05/22 10:58:12;;;;;;;33.55;26.48;;;;;;;21.98;72.38;101464.91;5073026;28;20016;-77
2023/05/22 11:00:37;;;;;;;33.70;26.98;;;;;;;22.04;71.41;101493.22;5072740;28;20020;-78
2023/05/22 11:03:04;;;;;;;35.22;27.90;;;;;;;22.06;70.58;101498.31;5072965;28;20028;-78
2023/05/22 11:05:30;;;;;;;37.85;28.38;;;;;;;22.13;72.01;101498.56;5072546;28;20107;-79